Tropical Cyclones
[Index]
Main Index Home Page Stock Weather Photos Extreme Storms Discussion Storm News and Storm Chasing Reports Tropical Cyclones / Hurricanes / Typhoons Weather Data and Links Wild Fires / Bushfires Weather Observation Techniques Weather Picture Catalogue Tornado Pictures and Reports Stock Video Footage and DVDs for sale
Season 1998-1999 Tropical Cyclone FRANK Track Map
Season 1998-1999 Summaries (Operational Data): [AU] [SIO] [SPAC] [SH]
<<- Previous TC | 1998-1999 Season | Next TC ->>

click for intensity scale information  Lat/long Grid: Show Hide

 Date Labels: Show Hide

Operational Tropical Cyclone Data : JTWC Advisories

Name: FRANK
Number: 9922

16 Feb 1999 23:00 UTC to 23 Feb 1999 06:00 UTC

    date/time    lat    long     hPa   cat  kts
1999-02-16 23   21.4   152.4                             
1999-02-17 00   21.4   153.7                             
1999-02-17 06   21.7   155.5     998         25          
1999-02-17 12   20.8   155.4     998         25          
1999-02-17 18   20.3   157.1     996         30          
1999-02-18 00   20.4   158.0     996         30          
1999-02-18 06   20.5   159.2     994         30          
1999-02-18 12   20.3   159.7     995         30          
1999-02-18 18   19.7   161.0     995    1    35          
1999-02-19 00   19.9   161.7     987    1    45          
1999-02-19 06   20.0   162.3     982    2    50          
1999-02-19 12   20.0   163.3     975    2    60          
1999-02-19 18   20.2   164.2     965    3    70          
1999-02-20 00   20.7   165.1     955    3    80          
1999-02-20 06   21.5   165.6     955    3    80          
1999-02-20 12   22.5   166.0     955    3    80          
1999-02-20 18   23.8   166.4     965    3    70          
1999-02-20 21   23.7   165.1     980    2    55          
1999-02-21 00   24.3   165.2     985    2    50          
1999-02-21 06   25.0   164.8     987    1    45          
1999-02-21 12   26.0   164.5     989    1    45          
1999-02-21 18   27.0   163.0     990    1    35          
1999-02-22 06   26.8   161.6                             
1999-02-22 18   27.3   161.5                             
1999-02-23 06   29.4   163.0                             
Winds are 10-min average.

Tropical cyclone tracks developed by Michael Bath using operational warnings and advisories and Google Maps.


[Australian Severe Weather index] [Copyright Notice] [Email Contacts] [Search This Site] [Privacy Policy]
Document: tropical_cyclone_frank.htm Updated: 28 May 2013